createdAt,value
2023-06-14T00:02:42.868Z,74.61
2023-06-14T00:05:10.634Z,74.62
2023-06-14T00:14:17.483Z,77.85
2023-06-14T00:16:45.141Z,78.52
2023-06-14T00:19:13.100Z,78.10
2023-06-14T00:21:40.776Z,75.61
2023-06-14T00:24:09.345Z,74.05
2023-06-14T00:26:37.062Z,74.34
2023-06-14T00:29:05.170Z,74.81
2023-06-14T00:31:33.241Z,75.25
2023-06-14T00:41:43.340Z,75.17
2023-06-14T00:44:11.134Z,73.92
2023-06-14T00:46:38.763Z,72.97
2023-06-14T00:49:07.501Z,73.63
2023-06-14T00:51:35.228Z,73.78
2023-06-14T00:54:02.802Z,74.98
2023-06-14T00:56:30.729Z,75.35
2023-06-14T00:58:58.408Z,75.97
2023-06-14T01:01:26.609Z,75.95
2023-06-14T01:03:54.332Z,74.42
2023-06-14T01:06:30.515Z,73.13
2023-06-14T01:09:05.030Z,73.37
2023-06-14T01:11:59.239Z,74.52
2023-06-14T01:14:26.838Z,75.46
2023-06-14T01:16:54.847Z,76.00
2023-06-14T01:19:23.857Z,76.70
2023-06-14T01:29:33.691Z,75.01
2023-06-14T01:32:02.110Z,75.34
2023-06-14T01:34:32.921Z,75.54
2023-06-14T01:37:01.530Z,75.82
2023-06-14T01:39:29.194Z,76.48
2023-06-14T01:41:58.882Z,76.41
2023-06-14T01:44:26.648Z,74.86
2023-06-14T01:46:54.345Z,74.67
2023-06-14T01:49:24.583Z,74.82
2023-06-14T01:51:52.036Z,75.93
2023-06-14T01:54:20.186Z,76.09
2023-06-14T01:56:47.862Z,76.98
2023-06-14T01:59:15.403Z,77.75
2023-06-14T02:01:43.086Z,78.02
2023-06-14T02:11:48.899Z,74.95
2023-06-14T02:14:18.173Z,75.55
2023-06-14T02:16:50.746Z,76.12
2023-06-14T02:19:18.624Z,76.60
2023-06-14T02:21:46.418Z,77.91
2023-06-14T02:24:16.573Z,77.44
2023-06-14T02:26:44.385Z,75.46
2023-06-14T02:36:54.469Z,75.84
2023-06-14T02:39:24.427Z,76.94
2023-06-14T02:41:52.072Z,77.37
2023-06-14T02:51:57.975Z,74.09
2023-06-14T03:02:07.021Z,76.85
2023-06-14T03:04:38.626Z,77.51
2023-06-14T03:07:11.804Z,78.20
2023-06-14T03:09:40.986Z,77.16
2023-06-14T03:12:11.205Z,74.86
2023-06-14T03:14:39.774Z,73.99
2023-06-14T03:17:09.748Z,74.77
2023-06-14T03:27:17.454Z,77.35
2023-06-14T03:37:27.644Z,74.25
2023-06-14T03:39:55.507Z,73.93
2023-06-14T03:50:01.623Z,75.83
2023-06-14T03:52:29.601Z,76.26
2023-06-14T03:55:55.474Z,75.21
2023-06-14T03:57:45.719Z,72.93
2023-06-14T04:07:52.249Z,72.78
2023-06-14T04:10:21.827Z,73.02
2023-06-14T04:20:28.563Z,74.47
2023-06-14T04:22:58.647Z,74.01
2023-06-14T04:25:27.912Z,72.30
2023-06-14T04:27:56.922Z,71.32
2023-06-14T04:30:27.591Z,70.42
2023-06-14T04:32:57.354Z,70.86
2023-06-14T04:35:26.845Z,71.41
2023-06-14T04:37:56.539Z,71.38
2023-06-14T04:40:24.618Z,71.20
2023-06-14T04:49:42.172Z,69.47
2023-06-14T04:59:56.590Z,67.37
2023-06-14T05:02:27.101Z,67.31
2023-06-14T05:04:58.199Z,67.27
2023-06-14T05:15:03.049Z,68.68
2023-06-14T05:17:30.899Z,68.21
2023-06-14T05:27:37.145Z,68.94
2023-06-14T05:37:49.289Z,64.00
2023-06-14T05:40:18.553Z,63.72
2023-06-14T05:42:46.750Z,63.28
2023-06-14T05:52:58.884Z,62.99
2023-06-14T05:55:26.527Z,61.90
2023-06-14T06:04:48.634Z,59.92
2023-06-14T06:14:00.898Z,57.06
2023-06-14T06:16:28.585Z,55.55
2023-06-14T06:18:56.495Z,56.26
2023-06-14T06:21:23.915Z,55.48
2023-06-14T06:23:51.452Z,54.90
2023-06-14T06:26:19.191Z,55.35
2023-06-14T06:28:46.941Z,53.18
2023-06-14T06:31:14.620Z,52.31
2023-06-14T06:33:42.274Z,51.19
2023-06-14T06:36:11.556Z,51.05
2023-06-14T06:38:40.556Z,51.98
2023-06-14T06:41:08.220Z,52.62
2023-06-14T06:43:35.892Z,51.79
2023-06-14T06:46:03.772Z,50.59
2023-06-14T06:48:31.506Z,51.98
2023-06-14T06:50:58.965Z,53.74
2023-06-14T06:53:39.270Z,52.70
2023-06-14T06:56:08.430Z,50.73
2023-06-14T07:06:20.387Z,52.44
2023-06-14T07:08:51.141Z,51.38
2023-06-14T07:11:18.768Z,51.64
2023-06-14T07:13:46.780Z,52.30
2023-06-14T07:23:56.384Z,51.98
2023-06-14T07:26:24.321Z,52.21
2023-06-14T07:35:50.266Z,53.18
2023-06-14T07:46:06.385Z,50.63
2023-06-14T07:48:36.002Z,51.34
2023-06-14T07:57:52.006Z,51.30
2023-06-14T08:00:21.408Z,50.89
2023-06-14T08:02:49.192Z,50.21
2023-06-14T08:05:17.481Z,48.87
2023-06-14T08:07:45.572Z,48.92
2023-06-14T08:10:13.143Z,48.58
2023-06-14T08:12:40.825Z,47.13
2023-06-14T08:22:49.477Z,51.04
2023-06-14T08:25:17.253Z,50.26
2023-06-14T08:27:45.737Z,50.72
2023-06-14T08:37:53.396Z,49.55
2023-06-14T08:40:22.790Z,47.81
2023-06-14T08:42:54.633Z,46.90
2023-06-14T08:45:25.406Z,45.76
2023-06-14T08:55:43.413Z,44.46
2023-06-14T08:58:15.985Z,42.30
2023-06-14T09:00:45.985Z,43.77
2023-06-14T09:03:17.005Z,45.26
2023-06-14T09:05:45.270Z,44.04
2023-06-14T09:15:53.833Z,45.13
2023-06-14T09:18:21.796Z,46.32
2023-06-14T09:20:49.288Z,44.38
2023-06-14T09:23:22.246Z,46.28
2023-06-14T09:25:49.190Z,47.07
2023-06-14T09:28:17.310Z,47.64
2023-06-14T09:30:44.407Z,47.55
2023-06-14T09:33:11.467Z,49.81
2023-06-14T09:35:38.842Z,49.09
2023-06-14T09:38:07.916Z,49.27
2023-06-14T09:40:37.249Z,48.94
2023-06-14T09:43:10.412Z,50.32
2023-06-14T09:45:40.002Z,49.22
2023-06-14T09:48:08.626Z,49.95
2023-06-14T09:50:36.107Z,49.33
2023-06-14T09:53:07.899Z,49.24
2023-06-14T09:55:36.848Z,49.72
2023-06-14T09:58:08.415Z,49.41
2023-06-14T10:00:37.651Z,49.37
2023-06-14T10:03:15.372Z,50.67
2023-06-14T10:05:46.601Z,49.41
2023-06-14T10:08:18.505Z,48.79
2023-06-14T10:10:45.708Z,48.76
2023-06-14T10:13:13.394Z,49.28
2023-06-14T10:16:01.084Z,48.04
2023-06-14T10:18:49.597Z,47.75
2023-06-14T10:21:24.466Z,47.79
2023-06-14T10:23:52.292Z,46.13
2023-06-14T10:26:24.011Z,46.45
2023-06-14T10:29:02.548Z,44.85
2023-06-14T10:32:00.377Z,44.11
2023-06-14T10:34:28.673Z,43.50
2023-06-14T10:37:11.720Z,43.52
2023-06-14T10:39:43.057Z,43.62
2023-06-14T10:42:10.712Z,41.78
2023-06-14T10:44:52.029Z,41.99
2023-06-14T10:47:29.452Z,41.77
2023-06-14T10:50:04.842Z,42.90
2023-06-14T10:52:35.956Z,44.95
2023-06-14T10:55:13.695Z,45.32
2023-06-14T10:57:56.520Z,46.13
2023-06-14T11:00:26.525Z,45.11
2023-06-14T11:03:25.222Z,45.08
2023-06-14T11:05:58.902Z,46.05
2023-06-14T11:08:46.871Z,47.84
2023-06-14T11:11:14.084Z,48.29
2023-06-14T11:13:44.703Z,48.39
2023-06-14T11:16:16.103Z,48.42
2023-06-14T11:18:43.101Z,48.01
2023-06-14T11:21:09.992Z,48.89
2023-06-14T11:23:37.510Z,47.66
2023-06-14T11:26:07.838Z,47.77
2023-06-14T11:28:39.588Z,47.71
2023-06-14T11:31:06.787Z,46.85
2023-06-14T11:33:34.607Z,47.29
2023-06-14T11:36:08.831Z,47.48
2023-06-14T11:38:37.400Z,45.89
2023-06-14T11:41:04.372Z,46.00
2023-06-14T11:43:33.551Z,47.25
2023-06-14T11:46:08.497Z,47.90
2023-06-14T11:48:41.078Z,48.95
2023-06-14T11:51:08.042Z,49.11
2023-06-14T11:53:54.671Z,48.31
2023-06-14T11:56:21.890Z,47.34
2023-06-14T11:58:48.499Z,47.29
2023-06-14T12:01:17.703Z,46.17
2023-06-14T12:03:51.342Z,47.38
2023-06-14T12:06:34.669Z,47.49
2023-06-14T12:09:05.244Z,45.79
2023-06-14T12:11:35.069Z,46.89
2023-06-14T12:14:04.711Z,45.29
2023-06-14T12:16:34.451Z,45.74
2023-06-14T12:19:08.841Z,44.44
2023-06-14T12:21:36.836Z,44.39
2023-06-14T12:24:04.584Z,45.74
2023-06-14T12:26:32.203Z,45.88
2023-06-14T12:28:59.282Z,45.64
2023-06-14T12:31:27.433Z,45.28
2023-06-14T12:33:54.322Z,45.21
2023-06-14T12:36:21.447Z,45.23
2023-06-14T12:38:48.464Z,45.92
2023-06-14T12:41:16.349Z,45.05
2023-06-14T12:43:44.606Z,45.42
2023-06-14T12:46:13.142Z,46.43
2023-06-14T12:48:40.145Z,44.96
2023-06-14T12:51:07.391Z,44.93
2023-06-14T12:53:34.877Z,45.16
2023-06-14T12:56:01.692Z,45.30
2023-06-14T12:58:28.876Z,44.93
2023-06-14T13:00:56.198Z,45.79
2023-06-14T13:03:23.077Z,47.27
2023-06-14T13:05:50.205Z,46.85
2023-06-14T13:08:17.157Z,45.51
2023-06-14T13:10:44.283Z,45.50
2023-06-14T13:13:14.188Z,46.17
2023-06-14T13:15:41.045Z,45.15
2023-06-14T13:18:07.816Z,46.07
2023-06-14T13:20:34.960Z,46.51
2023-06-14T13:23:04.029Z,46.58
2023-06-14T13:25:31.199Z,45.99
2023-06-14T13:27:58.332Z,47.27
2023-06-14T13:30:25.391Z,45.50
2023-06-14T13:32:52.761Z,45.88
2023-06-14T13:35:20.090Z,45.34
2023-06-14T13:37:46.830Z,45.58
2023-06-14T13:40:14.410Z,46.08
2023-06-14T13:42:41.446Z,46.45
2023-06-14T13:45:09.000Z,46.06
2023-06-14T13:47:35.754Z,45.46
2023-06-14T13:50:04.423Z,45.33
2023-06-14T13:52:31.949Z,45.75
2023-06-14T13:54:58.831Z,44.59
2023-06-14T13:57:26.487Z,44.52
2023-06-14T13:59:56.018Z,45.71
2023-06-14T14:02:22.940Z,46.34
2023-06-14T14:04:54.084Z,46.08
2023-06-14T14:07:22.769Z,46.56
2023-06-14T14:09:50.023Z,45.82
2023-06-14T14:12:16.910Z,46.27
2023-06-14T14:14:44.318Z,45.43
2023-06-14T14:17:11.299Z,45.06
2023-06-14T14:19:38.311Z,45.33
2023-06-14T14:22:06.185Z,44.52
2023-06-14T14:24:33.036Z,43.83
2023-06-14T14:27:00.996Z,44.84
2023-06-14T14:29:29.889Z,43.93
2023-06-14T14:31:57.326Z,43.24
2023-06-14T14:34:27.256Z,43.96
2023-06-14T14:36:54.404Z,44.53
2023-06-14T14:39:21.281Z,44.94
2023-06-14T14:41:48.200Z,46.36
2023-06-14T14:44:15.363Z,45.74
2023-06-14T14:46:45.206Z,46.51
2023-06-14T14:49:12.164Z,46.63
2023-06-14T14:51:40.479Z,46.79
2023-06-14T14:54:07.437Z,48.78
2023-06-14T14:56:35.832Z,47.67
2023-06-14T14:59:03.581Z,47.68
2023-06-14T15:01:30.751Z,47.87
2023-06-14T15:04:00.226Z,48.23
2023-06-14T15:06:27.496Z,49.34
2023-06-14T15:08:54.363Z,47.62
2023-06-14T15:11:21.892Z,48.32
2023-06-14T15:13:49.757Z,49.90
2023-06-14T15:16:16.908Z,50.00
2023-06-14T15:18:43.854Z,50.71
2023-06-14T15:21:12.927Z,50.28
2023-06-14T15:23:39.705Z,50.22
2023-06-14T15:26:06.528Z,50.71
2023-06-14T15:28:33.849Z,50.78
2023-06-14T15:31:01.286Z,50.82
2023-06-14T15:33:28.837Z,51.60
2023-06-14T15:35:56.251Z,51.92
2023-06-14T15:38:23.568Z,51.62
2023-06-14T15:40:52.126Z,51.54
2023-06-14T15:43:19.776Z,51.23
2023-06-14T15:45:46.624Z,51.07
2023-06-14T15:48:13.746Z,50.73
2023-06-14T15:50:40.997Z,50.63
2023-06-14T15:53:07.745Z,51.53
2023-06-14T15:55:34.482Z,50.62
2023-06-14T15:58:01.460Z,50.80
2023-06-14T16:00:28.569Z,51.29
2023-06-14T16:02:55.585Z,50.01
2023-06-14T16:05:22.782Z,50.04
2023-06-14T16:07:49.716Z,49.70
2023-06-14T16:10:16.922Z,49.86
2023-06-14T16:12:44.531Z,49.67
2023-06-14T16:15:11.575Z,48.78
2023-06-14T16:17:38.734Z,49.19
2023-06-14T16:20:06.779Z,49.06
2023-06-14T16:22:33.750Z,49.42
2023-06-14T16:25:00.782Z,48.43
2023-06-14T16:27:27.867Z,48.29
2023-06-14T16:29:54.803Z,48.22
2023-06-14T16:32:21.686Z,47.62
2023-06-14T16:34:48.818Z,48.07
2023-06-14T16:37:16.039Z,48.24
2023-06-14T16:39:42.969Z,48.90
2023-06-14T16:42:11.243Z,47.19
2023-06-14T16:44:38.394Z,46.62
2023-06-14T16:47:07.184Z,48.21
2023-06-14T16:49:34.024Z,47.69
2023-06-14T16:52:00.888Z,47.29
2023-06-14T16:54:29.159Z,48.60
2023-06-14T16:56:56.129Z,48.77
2023-06-14T16:59:22.946Z,48.60
2023-06-14T17:01:51.291Z,48.95
2023-06-14T17:04:19.133Z,49.19
2023-06-14T17:06:46.531Z,49.04
2023-06-14T17:09:14.049Z,49.38
2023-06-14T17:11:41.958Z,49.28
2023-06-14T17:14:10.027Z,49.78
2023-06-14T17:16:38.025Z,49.86
2023-06-14T17:19:08.041Z,50.26
2023-06-14T17:21:35.165Z,51.13
2023-06-14T17:24:03.214Z,50.58
2023-06-14T17:26:30.600Z,50.18
2023-06-14T17:28:57.803Z,49.80
2023-06-14T17:31:24.717Z,50.52
2023-06-14T17:33:51.736Z,50.50
2023-06-14T17:36:18.815Z,51.07
2023-06-14T17:38:46.282Z,51.48
2023-06-14T17:41:14.964Z,51.96
2023-06-14T17:43:42.290Z,52.90
2023-06-14T17:46:09.465Z,53.53
2023-06-14T17:48:37.209Z,54.03
2023-06-14T17:51:04.657Z,54.51
2023-06-14T17:53:31.736Z,54.87
2023-06-14T17:55:59.073Z,55.21
2023-06-14T17:58:26.011Z,55.36
2023-06-14T18:00:53.187Z,56.33
2023-06-14T18:03:20.345Z,56.57
2023-06-14T18:05:47.477Z,57.70
2023-06-14T18:08:15.012Z,58.53
2023-06-14T18:10:42.568Z,59.25
2023-06-14T18:13:09.516Z,59.62
2023-06-14T18:15:37.285Z,60.14
2023-06-14T18:18:04.781Z,60.79
2023-06-14T18:20:33.020Z,61.53
2023-06-14T18:23:00.279Z,62.22
2023-06-14T18:25:27.128Z,63.07
2023-06-14T18:27:53.956Z,63.58
2023-06-14T18:30:22.899Z,63.66
2023-06-14T18:32:50.214Z,64.27
2023-06-14T18:35:17.733Z,65.01
2023-06-14T18:37:45.093Z,66.12
2023-06-14T18:40:13.492Z,66.96
2023-06-14T18:42:40.545Z,67.65
2023-06-14T18:45:08.290Z,68.29
2023-06-14T18:47:35.817Z,68.65
2023-06-14T18:50:03.323Z,67.15
2023-06-14T18:52:30.792Z,66.33
2023-06-14T18:54:57.963Z,66.50
2023-06-14T18:57:25.996Z,66.96
2023-06-14T18:59:53.163Z,67.85
2023-06-14T19:02:21.640Z,68.52
2023-06-14T19:04:48.485Z,69.07
2023-06-14T19:07:15.652Z,69.13
2023-06-14T19:09:44.616Z,69.90
2023-06-14T19:12:12.718Z,70.56
2023-06-14T19:14:40.400Z,71.79
2023-06-14T19:17:10.265Z,71.10
2023-06-14T19:19:37.176Z,69.14
2023-06-14T19:22:04.772Z,68.21
2023-06-14T19:24:32.168Z,68.77
2023-06-14T19:26:59.588Z,70.42
2023-06-14T19:29:27.029Z,71.16
2023-06-14T19:31:54.315Z,72.24
2023-06-14T19:34:21.548Z,73.10
2023-06-14T19:36:48.479Z,73.94
2023-06-14T19:39:15.342Z,74.12
2023-06-14T19:41:44.335Z,73.11
2023-06-14T19:44:11.275Z,71.00
2023-06-14T19:46:38.357Z,70.85
2023-06-14T19:49:05.309Z,71.69
2023-06-14T19:51:33.033Z,72.45
2023-06-14T19:53:59.973Z,73.17
2023-06-14T19:56:27.064Z,74.19
2023-06-14T19:58:53.958Z,75.35
2023-06-14T20:01:20.979Z,75.60
2023-06-14T20:03:49.779Z,74.52
2023-06-14T20:06:17.361Z,72.25
2023-06-14T20:08:44.644Z,71.05
2023-06-14T20:11:13.613Z,70.98
2023-06-14T20:13:41.371Z,72.32
2023-06-14T20:16:08.461Z,72.86
2023-06-14T20:18:35.777Z,73.22
2023-06-14T20:21:03.448Z,73.54
2023-06-14T20:23:31.191Z,74.22
2023-06-14T20:25:57.981Z,74.18
2023-06-14T20:28:24.912Z,72.69
2023-06-14T20:30:51.821Z,72.07
2023-06-14T20:33:19.735Z,72.03
2023-06-14T20:35:46.526Z,73.09
2023-06-14T20:38:13.417Z,74.70
2023-06-14T20:40:40.315Z,74.92
2023-06-14T20:43:12.710Z,75.85
2023-06-14T20:45:40.187Z,77.36
2023-06-14T20:48:07.379Z,78.30
2023-06-14T20:50:35.366Z,76.58
2023-06-14T20:53:02.328Z,75.72
2023-06-14T20:55:29.249Z,75.89
2023-06-14T20:57:56.553Z,76.54
2023-06-14T21:00:23.981Z,76.98
2023-06-14T21:02:51.260Z,77.81
2023-06-14T21:05:18.393Z,78.72
2023-06-14T21:07:45.622Z,79.06
2023-06-14T21:10:12.574Z,76.83
2023-06-14T21:12:40.914Z,75.93
2023-06-14T21:15:09.321Z,76.13
2023-06-14T21:17:36.397Z,76.75
2023-06-14T21:20:05.064Z,78.22
2023-06-14T21:22:34.401Z,79.09
2023-06-14T21:25:01.723Z,80.15
2023-06-14T21:27:29.032Z,80.56
2023-06-14T21:29:56.150Z,78.85
2023-06-14T21:32:23.124Z,78.12
2023-06-14T21:34:50.362Z,77.63
2023-06-14T21:37:17.564Z,78.09
2023-06-14T21:39:44.466Z,78.90
2023-06-14T21:42:11.975Z,79.65
2023-06-14T21:44:42.936Z,79.96
2023-06-14T21:47:10.976Z,78.50
2023-06-14T21:49:41.321Z,78.39
2023-06-14T21:52:08.650Z,79.00
2023-06-14T21:54:37.135Z,80.12
2023-06-14T21:57:04.501Z,80.56
2023-06-14T21:59:31.746Z,81.04
2023-06-14T22:01:58.509Z,81.02
2023-06-14T22:04:25.428Z,79.78
2023-06-14T22:06:52.927Z,78.80
2023-06-14T22:09:21.677Z,79.61
2023-06-14T22:11:50.078Z,80.70
2023-06-14T22:14:21.774Z,81.41
2023-06-14T22:16:48.581Z,82.01
2023-06-14T22:19:15.803Z,82.27
2023-06-14T22:21:51.592Z,80.85
2023-06-14T22:24:18.968Z,79.82
2023-06-14T22:26:48.026Z,80.12
2023-06-14T22:29:17.212Z,80.83
2023-06-14T22:31:44.710Z,81.47
2023-06-14T22:34:11.688Z,82.26
2023-06-14T22:36:39.092Z,82.84
2023-06-14T22:39:06.548Z,80.65
2023-06-14T22:41:33.399Z,79.67
2023-06-14T22:44:01.136Z,79.94
2023-06-14T22:46:28.589Z,80.23
2023-06-14T22:48:55.714Z,80.88
2023-06-14T22:51:23.190Z,81.67
2023-06-14T22:53:50.676Z,81.99
2023-06-14T22:56:19.226Z,79.99
2023-06-14T22:58:46.074Z,79.19
2023-06-14T23:01:17.286Z,79.12
2023-06-14T23:03:45.759Z,79.97
2023-06-14T23:06:14.183Z,80.54
2023-06-14T23:08:44.428Z,80.96
2023-06-14T23:11:17.075Z,81.27
2023-06-14T23:13:48.327Z,79.42
2023-06-14T23:16:15.827Z,78.23
2023-06-14T23:18:42.624Z,78.32
2023-06-14T23:21:11.823Z,79.16
2023-06-14T23:23:40.818Z,79.66
2023-06-14T23:26:08.986Z,80.57
2023-06-14T23:28:36.469Z,80.50
2023-06-14T23:31:07.887Z,79.39
2023-06-14T23:33:35.148Z,78.86
2023-06-14T23:36:04.008Z,79.57
2023-06-14T23:38:31.702Z,80.58
2023-06-14T23:41:02.439Z,81.24
2023-06-14T23:43:30.399Z,81.56
2023-06-14T23:45:58.181Z,81.89
2023-06-14T23:48:26.972Z,80.61
2023-06-14T23:50:54.329Z,80.20
2023-06-14T23:53:23.723Z,80.81
2023-06-14T23:55:53.136Z,82.46
2023-06-14T23:59:33.584Z,84.03
